createdAt,value
2022-08-09T00:00:06.077Z,3.85
2022-08-09T00:02:42.948Z,3.97
2022-08-09T00:06:18.308Z,4.10
2022-08-09T00:08:02.230Z,4.00
2022-08-09T00:10:28.686Z,4.00
2022-08-09T00:12:55.082Z,4.15
2022-08-09T00:15:26.504Z,4.10
2022-08-09T00:18:11.255Z,4.43
2022-08-09T00:20:42.215Z,4.28
2022-08-09T00:23:55.577Z,4.50
2022-08-09T00:26:01.663Z,4.05
2022-08-09T00:28:31.740Z,3.97
2022-08-09T00:31:01.083Z,4.50
2022-08-09T00:33:51.084Z,4.28
2022-08-09T00:36:18.206Z,5.10
2022-08-09T00:38:45.004Z,5.00
2022-08-09T00:41:13.114Z,4.35
2022-08-09T00:44:15.220Z,4.70
2022-08-09T00:46:56.927Z,4.03
2022-08-09T00:49:28.610Z,4.38
2022-08-09T00:51:57.677Z,4.30
2022-08-09T00:54:31.483Z,4.65
2022-08-09T00:57:01.834Z,4.38
2022-08-09T00:59:41.694Z,4.88
2022-08-09T01:02:16.907Z,4.93
2022-08-09T01:05:14.202Z,5.35
2022-08-09T01:08:00.041Z,5.55
2022-08-09T01:10:34.146Z,5.22
2022-08-09T01:13:07.409Z,5.93
2022-08-09T01:15:41.113Z,5.47
2022-08-09T01:18:30.320Z,5.53
2022-08-09T01:21:16.096Z,5.78
2022-08-09T01:24:02.043Z,6.40
2022-08-09T01:26:33.559Z,6.32
2022-08-09T01:29:03.301Z,5.88
2022-08-09T01:32:44.011Z,6.43
2022-08-09T01:34:20.039Z,6.60
2022-08-09T01:36:47.746Z,5.68
2022-08-09T01:39:16.314Z,5.53
2022-08-09T01:41:53.389Z,6.65
2022-08-09T01:44:23.588Z,6.28
2022-08-09T01:46:50.954Z,6.03
2022-08-09T01:49:20.980Z,6.00
2022-08-09T01:51:55.106Z,6.28
2022-08-09T01:54:23.535Z,6.47
2022-08-09T01:56:52.043Z,6.15
2022-08-09T01:59:20.022Z,6.55
2022-08-09T02:01:59.988Z,7.32
2022-08-09T02:04:28.276Z,6.80
2022-08-09T02:07:08.716Z,7.22
2022-08-09T02:09:59.269Z,8.40
2022-08-09T02:12:28.300Z,7.40
2022-08-09T02:14:58.008Z,6.72
2022-08-09T02:18:00.683Z,7.20
2022-08-09T02:20:12.908Z,7.85
2022-08-09T02:22:52.835Z,7.55
2022-08-09T02:25:21.427Z,8.00
2022-08-09T02:28:03.919Z,7.00
2022-08-09T02:30:41.501Z,6.97
2022-08-09T02:33:14.467Z,8.10
2022-08-09T02:35:46.362Z,6.95
2022-08-09T02:38:30.575Z,7.57
2022-08-09T02:41:06.240Z,7.88
2022-08-09T02:43:54.137Z,7.20
2022-08-09T02:46:24.210Z,7.28
2022-08-09T02:48:51.771Z,7.97
2022-08-09T02:51:20.933Z,7.25
2022-08-09T02:53:59.602Z,7.35
2022-08-09T02:56:28.922Z,7.75
2022-08-09T02:58:55.799Z,7.53
2022-08-09T03:01:29.330Z,7.28
2022-08-09T03:04:18.272Z,7.25
2022-08-09T03:06:46.659Z,7.28
2022-08-09T03:09:16.153Z,7.18
2022-08-09T03:12:06.031Z,8.02
2022-08-09T03:14:31.777Z,6.88
2022-08-09T03:16:59.718Z,8.27
2022-08-09T03:19:59.415Z,6.80
2022-08-09T03:22:24.997Z,8.00
2022-08-09T03:25:06.436Z,7.20
2022-08-09T03:27:45.876Z,7.38
2022-08-09T03:30:12.828Z,7.90
2022-08-09T03:32:41.507Z,7.50
2022-08-09T03:35:24.501Z,7.75
2022-08-09T03:37:58.969Z,7.63
2022-08-09T03:40:30.875Z,8.65
2022-08-09T03:42:57.624Z,8.45
2022-08-09T03:46:04.855Z,8.07
2022-08-09T03:48:10.339Z,8.23
2022-08-09T03:50:37.541Z,9.10
2022-08-09T03:53:10.647Z,8.85
2022-08-09T03:55:40.817Z,8.32
2022-08-09T03:58:14.906Z,9.03
2022-08-09T04:00:44.932Z,9.05
2022-08-09T04:03:11.751Z,8.85
2022-08-09T04:05:46.278Z,8.73
2022-08-09T04:08:12.599Z,8.75
2022-08-09T04:10:39.745Z,9.23
2022-08-09T04:13:11.425Z,9.25
2022-08-09T04:16:18.564Z,8.50
2022-08-09T04:18:25.340Z,8.82
2022-08-09T04:20:51.796Z,8.43
2022-08-09T04:23:23.529Z,8.55
2022-08-09T04:25:52.962Z,9.10
2022-08-09T04:28:34.163Z,8.55
2022-08-09T04:31:09.243Z,8.63
2022-08-09T04:33:52.527Z,9.05
2022-08-09T04:36:25.589Z,8.48
2022-08-09T04:38:52.520Z,8.95
2022-08-09T04:41:19.246Z,9.15
2022-08-09T04:44:05.266Z,9.43
2022-08-09T04:46:56.677Z,9.30
2022-08-09T04:49:53.736Z,8.95
2022-08-09T04:52:09.698Z,9.23
2022-08-09T04:54:36.348Z,9.32
2022-08-09T04:57:03.835Z,9.73
2022-08-09T04:59:30.574Z,9.95
2022-08-09T05:01:56.961Z,9.95
2022-08-09T05:04:23.353Z,9.05
2022-08-09T05:06:57.681Z,9.65
2022-08-09T05:09:24.920Z,9.25
2022-08-09T05:11:58.974Z,8.90
2022-08-09T05:14:26.857Z,9.27
2022-08-09T05:16:58.928Z,9.63
2022-08-09T05:19:38.412Z,9.68
2022-08-09T05:22:36.231Z,10.00
2022-08-09T05:25:00.955Z,8.60
2022-08-09T05:27:29.064Z,8.20
2022-08-09T05:29:58.945Z,8.75
2022-08-09T05:32:25.669Z,9.48
2022-08-09T05:34:52.060Z,9.27
2022-08-09T05:37:18.594Z,9.65
2022-08-09T05:39:45.040Z,8.77
2022-08-09T05:42:17.552Z,9.18
2022-08-09T05:44:50.799Z,9.13
2022-08-09T05:47:17.941Z,8.85
2022-08-09T05:50:35.014Z,9.68
2022-08-09T05:52:30.695Z,7.35
2022-08-09T05:54:58.028Z,8.35
2022-08-09T05:57:55.954Z,8.73
2022-08-09T06:00:16.259Z,7.60
2022-08-09T06:02:46.629Z,8.15
2022-08-09T06:05:14.464Z,7.25
2022-08-09T06:07:42.561Z,7.90
2022-08-09T06:10:09.383Z,8.15
2022-08-09T06:12:43.021Z,8.25
2022-08-09T06:15:10.184Z,7.35
2022-08-09T06:17:39.181Z,7.25
2022-08-09T06:20:07.077Z,7.40
2022-08-09T06:22:34.444Z,6.95
2022-08-09T06:25:01.044Z,6.85
2022-08-09T06:27:42.481Z,7.18
2022-08-09T06:30:10.306Z,5.80
2022-08-09T06:32:59.630Z,7.13
2022-08-09T06:35:22.960Z,5.93
2022-08-09T06:38:09.278Z,6.68
2022-08-09T06:40:37.554Z,6.55
2022-08-09T06:43:04.345Z,6.32
2022-08-09T06:46:06.380Z,5.82
2022-08-09T06:48:30.601Z,6.45
2022-08-09T06:50:58.069Z,5.40
2022-08-09T06:53:24.781Z,5.85
2022-08-09T06:55:51.117Z,5.43
2022-08-09T06:58:40.860Z,5.20
2022-08-09T07:01:03.784Z,4.65
2022-08-09T07:03:30.853Z,5.13
2022-08-09T07:06:03.920Z,4.28
2022-08-09T07:08:31.703Z,3.97
2022-08-09T07:10:58.087Z,3.75
2022-08-09T07:13:28.231Z,3.72
2022-08-09T07:16:41.058Z,3.40
2022-08-09T07:18:42.093Z,3.33
2022-08-09T07:21:09.401Z,3.40
2022-08-09T07:23:56.375Z,3.38
2022-08-09T07:26:23.383Z,3.33
2022-08-09T07:29:08.304Z,2.88
2022-08-09T07:31:38.518Z,2.17
2022-08-09T07:34:20.832Z,2.40
2022-08-09T07:36:48.355Z,2.72
2022-08-09T07:39:20.442Z,2.20
2022-08-09T07:42:02.318Z,2.08
2022-08-09T07:44:33.071Z,2.85
2022-08-09T07:47:16.382Z,2.35
2022-08-09T07:50:05.119Z,2.10
2022-08-09T07:52:29.385Z,1.60
2022-08-09T07:54:56.608Z,1.85
2022-08-09T07:57:23.993Z,1.98
2022-08-09T08:00:03.723Z,2.10
2022-08-09T08:02:42.582Z,1.90
2022-08-09T08:05:17.704Z,2.23
2022-08-09T08:08:43.177Z,1.35
2022-08-09T08:10:34.414Z,1.50
2022-08-09T08:13:01.086Z,1.50
2022-08-09T08:15:30.180Z,1.30
2022-08-09T08:18:01.994Z,1.58
2022-08-09T08:20:32.664Z,1.17
2022-08-09T08:23:03.637Z,1.60
2022-08-09T08:25:46.597Z,1.40
2022-08-09T08:28:15.444Z,1.30
2022-08-09T08:30:43.064Z,1.10
2022-08-09T08:33:11.812Z,1.23
2022-08-09T08:35:58.239Z,1.00
2022-08-09T08:38:25.252Z,0.95
2022-08-09T08:40:55.565Z,0.90
2022-08-09T08:43:23.589Z,0.90
2022-08-09T08:45:53.229Z,1.00
2022-08-09T08:48:29.247Z,1.13
2022-08-09T08:53:23.862Z,1.00
2022-08-09T08:55:58.966Z,1.38
2022-08-09T08:58:28.036Z,0.80
2022-08-09T09:00:57.374Z,0.77
2022-08-09T09:03:37.126Z,1.30
2022-08-09T09:06:05.693Z,0.93
2022-08-09T09:08:37.865Z,1.15
2022-08-09T09:11:08.007Z,0.95
2022-08-09T09:13:54.761Z,1.10
2022-08-09T09:16:30.774Z,0.93
2022-08-09T09:21:56.103Z,1.33
2022-08-09T09:24:29.015Z,1.27
2022-08-09T09:26:56.935Z,1.00
2022-08-09T09:32:36.076Z,1.13
2022-08-09T09:35:09.875Z,0.90
2022-08-09T09:37:37.822Z,0.95
2022-08-09T09:40:07.553Z,1.00
2022-08-09T09:42:35.483Z,0.80
2022-08-09T09:45:05.727Z,0.90
2022-08-09T09:47:36.884Z,0.82
2022-08-09T09:50:14.815Z,1.02
2022-08-09T09:52:53.921Z,1.00
2022-08-09T09:55:28.889Z,0.98
2022-08-09T09:58:18.650Z,0.70
2022-08-09T10:00:54.628Z,1.00
2022-08-09T10:03:39.680Z,0.77
2022-08-09T10:06:06.405Z,0.82
2022-08-09T10:08:32.870Z,0.82
2022-08-09T10:12:00.778Z,0.75
2022-08-09T10:14:30.482Z,1.23
2022-08-09T10:17:11.373Z,1.13
2022-08-09T10:19:45.716Z,0.65
2022-08-09T10:22:12.515Z,0.85
2022-08-09T10:24:39.571Z,0.70
2022-08-09T10:27:16.954Z,0.80
2022-08-09T10:30:48.092Z,0.80
2022-08-09T10:32:42.777Z,0.90
2022-08-09T10:35:09.888Z,0.80
2022-08-09T10:37:38.210Z,0.90
2022-08-09T10:40:08.605Z,0.73
2022-08-09T10:42:38.618Z,0.60
2022-08-09T10:45:10.592Z,0.43
2022-08-09T10:48:19.241Z,0.65
2022-08-09T10:51:09.583Z,0.65
2022-08-09T10:53:58.192Z,0.75
2022-08-09T10:56:29.763Z,0.57
2022-08-09T10:58:57.284Z,0.90
2022-08-09T11:03:15.879Z,0.75
2022-08-09T11:04:31.660Z,0.60
2022-08-09T11:07:00.181Z,0.98
2022-08-09T11:09:48.979Z,0.60
2022-08-09T11:12:17.114Z,0.82
2022-08-09T11:14:48.691Z,0.47
2022-08-09T11:17:14.995Z,0.80
2022-08-09T11:20:19.901Z,1.57
2022-08-09T11:22:56.655Z,0.70
2022-08-09T11:25:36.154Z,0.70
2022-08-09T11:28:30.605Z,0.70
2022-08-09T11:31:01.783Z,0.90
2022-08-09T11:33:48.396Z,0.60
2022-08-09T11:36:30.298Z,1.00
2022-08-09T11:39:02.701Z,0.80
2022-08-09T11:41:38.596Z,0.82
2022-08-09T11:44:07.485Z,0.90
2022-08-09T11:46:50.674Z,0.60
2022-08-09T11:49:17.248Z,0.52
2022-08-09T11:52:59.262Z,0.70
2022-08-09T11:55:07.876Z,0.95
2022-08-09T11:57:47.992Z,0.88
2022-08-09T12:00:27.669Z,0.70
2022-08-09T12:02:55.726Z,0.70
2022-08-09T12:05:22.899Z,0.68
2022-08-09T12:07:50.170Z,0.65
2022-08-09T12:10:39.857Z,0.60
2022-08-09T12:14:07.570Z,0.60
2022-08-09T12:15:58.378Z,0.70
2022-08-09T12:18:26.172Z,0.70
2022-08-09T12:21:00.331Z,0.65
2022-08-09T12:23:57.915Z,0.60
2022-08-09T12:26:19.698Z,0.70
2022-08-09T12:28:59.289Z,0.68
2022-08-09T12:31:59.227Z,0.70
2022-08-09T12:34:35.092Z,0.77
2022-08-09T12:37:21.863Z,0.77
2022-08-09T12:39:58.840Z,0.80
2022-08-09T12:42:26.172Z,0.68
2022-08-09T12:44:54.554Z,0.57
2022-08-09T12:47:22.891Z,0.60
2022-08-09T12:50:09.845Z,0.60
2022-08-09T12:52:42.648Z,1.20
2022-08-09T12:56:12.305Z,0.70
2022-08-09T12:58:24.251Z,0.60
2022-08-09T13:00:53.955Z,0.73
2022-08-09T13:03:28.536Z,0.80
2022-08-09T13:06:23.874Z,0.60
2022-08-09T13:09:01.074Z,0.60
2022-08-09T13:11:31.597Z,0.55
2022-08-09T13:14:43.663Z,0.63
2022-08-09T13:16:47.761Z,0.77
2022-08-09T13:20:06.498Z,0.68
2022-08-09T13:22:35.429Z,1.00
2022-08-09T13:25:11.867Z,1.15
2022-08-09T13:27:48.723Z,0.70
2022-08-09T13:32:09.882Z,0.50
2022-08-09T13:33:11.556Z,0.90
2022-08-09T13:36:37.826Z,0.60
2022-08-09T13:38:54.168Z,0.70
2022-08-09T13:41:58.177Z,0.50
2022-08-09T13:44:06.784Z,0.57
2022-08-09T13:47:16.012Z,0.70
2022-08-09T13:49:20.695Z,0.60
2022-08-09T13:51:58.819Z,0.82
2022-08-09T13:54:27.700Z,0.63
2022-08-09T13:56:56.777Z,0.60
2022-08-09T13:59:25.241Z,0.88
2022-08-09T14:02:01.330Z,0.80
2022-08-09T14:04:29.103Z,0.77
2022-08-09T14:07:03.627Z,0.80
2022-08-09T14:09:30.200Z,0.70
2022-08-09T14:12:02.067Z,0.60
2022-08-09T14:14:34.946Z,0.70
2022-08-09T14:17:03.703Z,1.00
2022-08-09T14:19:33.462Z,0.82
2022-08-09T14:22:00.239Z,1.23
2022-08-09T14:24:32.309Z,0.70
2022-08-09T14:27:00.157Z,0.80
2022-08-09T14:30:34.748Z,0.80
2022-08-09T14:32:16.321Z,0.80
2022-08-09T14:34:46.166Z,0.70
2022-08-09T14:37:12.486Z,0.70
2022-08-09T14:39:46.684Z,0.65
2022-08-09T14:42:29.060Z,0.82
2022-08-09T14:44:59.861Z,0.88
2022-08-09T14:47:46.705Z,0.50
2022-08-09T14:50:16.221Z,0.80
2022-08-09T14:52:43.871Z,0.70
2022-08-09T14:55:19.969Z,0.70
2022-08-09T14:57:47.228Z,0.73
2022-08-09T15:00:15.258Z,1.13
2022-08-09T15:02:41.606Z,0.50
2022-08-09T15:05:08.211Z,0.70
2022-08-09T15:07:35.346Z,0.80
2022-08-09T15:10:07.430Z,0.90
2022-08-09T15:12:37.826Z,0.60
2022-08-09T15:15:04.491Z,0.65
2022-08-09T15:17:41.781Z,0.60
2022-08-09T15:20:11.807Z,1.08
2022-08-09T15:22:47.056Z,0.70
2022-08-09T15:25:14.339Z,0.60
2022-08-09T15:27:47.871Z,0.50
2022-08-09T15:30:57.630Z,0.90
2022-08-09T15:33:15.187Z,0.65
2022-08-09T15:36:02.198Z,0.70
2022-08-09T15:38:33.776Z,0.65
2022-08-09T15:41:00.172Z,0.60
2022-08-09T15:43:37.911Z,0.77
2022-08-09T15:46:28.623Z,0.60
2022-08-09T15:49:20.477Z,1.17
2022-08-09T15:52:01.803Z,1.00
2022-08-09T15:54:33.500Z,1.55
2022-08-09T15:57:09.556Z,1.13
2022-08-09T15:59:37.205Z,0.95
2022-08-09T16:02:04.046Z,1.08
2022-08-09T16:04:32.015Z,1.48
2022-08-09T16:07:01.837Z,0.73
2022-08-09T16:09:32.628Z,0.90
2022-08-09T16:12:15.684Z,1.20
2022-08-09T16:14:42.431Z,1.30
2022-08-09T16:17:09.150Z,0.90
2022-08-09T16:19:48.947Z,1.00
2022-08-09T16:22:16.101Z,2.10
2022-08-09T16:24:42.813Z,1.77
2022-08-09T16:27:16.860Z,1.40
2022-08-09T16:29:50.573Z,0.90
2022-08-09T16:32:35.003Z,1.88
2022-08-09T16:35:02.453Z,0.70
2022-08-09T16:37:53.178Z,0.80
2022-08-09T16:40:20.392Z,0.50
2022-08-09T16:42:56.634Z,0.50
2022-08-09T16:45:23.037Z,0.60
2022-08-09T16:48:39.892Z,0.82
2022-08-09T16:50:38.181Z,0.70
2022-08-09T16:53:05.576Z,0.60
2022-08-09T16:55:58.270Z,0.70
2022-08-09T16:58:19.449Z,0.70
2022-08-09T17:00:48.196Z,0.60
2022-08-09T17:03:21.472Z,0.65
2022-08-09T17:06:08.685Z,0.60
2022-08-09T17:08:44.643Z,0.70
2022-08-09T17:11:24.478Z,0.68
2022-08-09T17:14:01.690Z,0.70
2022-08-09T17:16:28.767Z,0.60
2022-08-09T17:18:55.186Z,0.60
2022-08-09T17:21:23.808Z,0.60
2022-08-09T17:24:20.792Z,0.60
2022-08-09T17:26:38.348Z,0.77
2022-08-09T17:29:06.028Z,0.70
2022-08-09T17:31:49.080Z,0.40
2022-08-09T17:35:01.059Z,0.70
2022-08-09T17:37:05.233Z,0.70
2022-08-09T17:39:53.222Z,0.77
2022-08-09T17:42:41.317Z,0.65
2022-08-09T17:45:06.360Z,0.70
2022-08-09T17:47:49.875Z,0.80
2022-08-09T17:50:24.955Z,0.60
2022-08-09T17:53:04.684Z,0.90
2022-08-09T17:55:49.550Z,0.50
2022-08-09T17:58:18.853Z,0.93
2022-08-09T18:00:48.019Z,0.70
2022-08-09T18:03:15.075Z,0.70
2022-08-09T18:05:53.099Z,1.05
2022-08-09T18:08:21.988Z,0.77
2022-08-09T18:10:58.818Z,1.00
2022-08-09T18:13:39.712Z,0.77
2022-08-09T18:16:14.632Z,0.90
2022-08-09T18:18:49.123Z,0.90
2022-08-09T18:21:19.608Z,1.05
2022-08-09T18:24:11.440Z,0.90
2022-08-09T18:26:46.986Z,0.70
2022-08-09T18:30:39.882Z,0.60
2022-08-09T18:32:05.486Z,0.80
2022-08-09T18:34:35.553Z,0.88
2022-08-09T18:37:10.398Z,0.68
2022-08-09T18:39:52.550Z,1.00
2022-08-09T18:42:18.914Z,0.70
2022-08-09T18:44:47.707Z,0.60
2022-08-09T18:47:16.007Z,0.80
2022-08-09T18:49:46.492Z,0.73
2022-08-09T18:52:15.827Z,0.60
2022-08-09T18:54:52.661Z,0.63
2022-08-09T18:57:22.185Z,0.73
2022-08-09T18:59:57.764Z,0.70
2022-08-09T19:02:31.802Z,0.70
2022-08-09T19:05:03.969Z,0.80
2022-08-09T19:08:04.458Z,0.90
2022-08-09T19:10:37.181Z,0.65
2022-08-09T19:15:50.806Z,0.88
2022-08-09T19:18:32.974Z,0.63
2022-08-09T19:21:02.529Z,0.80
2022-08-09T19:24:39.833Z,0.70
2022-08-09T19:26:15.498Z,0.68
2022-08-09T19:28:48.862Z,0.90
2022-08-09T19:31:16.733Z,0.80
2022-08-09T19:33:46.102Z,0.95
2022-08-09T19:36:13.389Z,1.10
2022-08-09T19:38:40.222Z,0.80
2022-08-09T19:41:08.959Z,0.80
2022-08-09T19:44:01.304Z,0.82
2022-08-09T19:46:35.923Z,0.88
2022-08-09T19:50:06.570Z,0.90
2022-08-09T19:51:57.054Z,1.40
2022-08-09T19:54:26.848Z,1.17
2022-08-09T19:56:53.986Z,0.93
2022-08-09T19:59:59.023Z,1.25
2022-08-09T20:04:06.904Z,1.40
2022-08-09T20:04:58.581Z,1.40
2022-08-09T20:07:26.124Z,1.35
2022-08-09T20:10:17.790Z,1.27
2022-08-09T20:12:49.056Z,1.52
2022-08-09T20:16:32.858Z,1.40
2022-08-09T20:18:04.947Z,1.65
2022-08-09T20:20:35.098Z,1.58
2022-08-09T20:25:51.553Z,1.42
2022-08-09T20:28:24.479Z,1.60
2022-08-09T20:31:04.919Z,1.63
2022-08-09T20:33:39.260Z,1.45
2022-08-09T20:36:08.218Z,1.45
2022-08-09T20:39:06.948Z,1.30
2022-08-09T20:41:21.128Z,1.08
2022-08-09T20:44:01.175Z,1.20
2022-08-09T20:46:41.635Z,1.90
2022-08-09T20:49:11.318Z,1.30
2022-08-09T20:51:41.669Z,1.50
2022-08-09T20:54:12.661Z,2.85
2022-08-09T20:56:47.176Z,1.48
2022-08-09T20:59:17.514Z,1.80
2022-08-09T21:01:50.606Z,1.48
2022-08-09T21:05:52.968Z,1.40
2022-08-09T21:07:11.360Z,1.30
2022-08-09T21:09:55.768Z,1.10
2022-08-09T21:15:13.929Z,1.05
2022-08-09T21:18:22.312Z,1.20
2022-08-09T21:20:30.181Z,1.08
2022-08-09T21:22:57.193Z,1.10
2022-08-09T21:25:44.503Z,1.58
2022-08-09T21:28:35.115Z,0.95
2022-08-09T21:31:16.597Z,0.93
2022-08-09T21:36:11.635Z,1.00
2022-08-09T21:38:39.190Z,1.10
2022-08-09T21:41:08.439Z,0.93
2022-08-09T21:43:56.115Z,1.02
2022-08-09T21:46:23.860Z,0.90
2022-08-09T21:48:51.799Z,1.00
2022-08-09T21:51:23.866Z,1.27
2022-08-09T21:53:55.348Z,0.90
2022-08-09T21:56:43.140Z,1.00
2022-08-09T21:59:09.728Z,0.98
2022-08-09T22:01:58.665Z,1.10
2022-08-09T22:04:22.588Z,0.90
2022-08-09T22:07:08.916Z,1.00
2022-08-09T22:09:38.558Z,1.20
2022-08-09T22:12:18.348Z,0.88
2022-08-09T22:14:45.815Z,1.10
2022-08-09T22:17:12.178Z,1.00
2022-08-09T22:19:58.516Z,1.20
2022-08-09T22:22:25.087Z,0.95
2022-08-09T22:24:53.515Z,1.10
2022-08-09T22:27:38.619Z,0.80
2022-08-09T22:30:07.259Z,1.20
2022-08-09T22:32:33.916Z,1.13
2022-08-09T22:35:06.334Z,0.90
2022-08-09T22:37:46.738Z,0.93
2022-08-09T22:40:20.233Z,1.00
2022-08-09T22:42:46.802Z,0.90
2022-08-09T22:48:12.887Z,0.90
2022-08-09T22:48:35.201Z,0.93
2022-08-09T22:50:52.803Z,0.95
2022-08-09T22:53:19.700Z,1.00
2022-08-09T22:56:29.567Z,0.80
2022-08-09T22:58:33.619Z,1.00
2022-08-09T23:01:02.324Z,1.02
2022-08-09T23:04:02.873Z,1.00
2022-08-09T23:06:15.924Z,1.00
2022-08-09T23:08:59.119Z,1.00
2022-08-09T23:11:25.499Z,0.90
2022-08-09T23:13:53.049Z,0.90
2022-08-09T23:16:22.533Z,1.00
2022-08-09T23:18:48.935Z,1.20
2022-08-09T23:21:25.992Z,1.10
2022-08-09T23:24:06.801Z,1.23
2022-08-09T23:26:33.879Z,1.13
2022-08-09T23:29:00.223Z,1.13
2022-08-09T23:31:26.581Z,1.45
2022-08-09T23:33:53.069Z,1.30
2022-08-09T23:36:19.436Z,1.30
2022-08-09T23:38:48.906Z,1.30
2022-08-09T23:41:28.864Z,1.50
2022-08-09T23:43:56.594Z,1.75
2022-08-09T23:46:22.926Z,1.33
2022-08-09T23:48:49.284Z,1.48
2022-08-09T23:51:15.650Z,1.45
2022-08-09T23:53:42.187Z,1.30
2022-08-09T23:56:08.535Z,1.42
2022-08-09T23:58:35.431Z,1.30
